Time;durP1;ratioP1;P1;durP2;ratioP2;P2;SDS_P1;SDS_P2;PMS_P1;PMS_P2;Temp;Humidity;BMP_temperature;BMP_pressure;BME280_temperature;BME280_humidity;BME280_pressure;Samples;Min_cycle;Max_cycle;Signal;HPM_P1;HPM_P2
2022/08/05 00:01:23;;;;;;;2.17;0.85;;;17.90;99.90;;;;;;5038465;28;20194;-76
2022/08/05 00:03:56;;;;;;;1.52;1.10;;;17.90;99.90;;;;;;5038038;28;20205;-76
2022/08/05 00:06:29;;;;;;;2.80;1.00;;;17.90;99.90;;;;;;5037788;28;20244;-74
2022/08/05 00:09:00;;;;;;;1.75;0.90;;;17.90;99.90;;;;;;5035618;28;20190;-75
2022/08/05 00:11:31;;;;;;;1.75;1.00;;;17.90;99.90;;;;;;5038219;28;20221;-75
2022/08/05 00:14:02;;;;;;;2.00;0.90;;;17.90;99.90;;;;;;5038565;28;20205;-75
2022/08/05 00:16:32;;;;;;;1.00;0.80;;;18.10;99.90;;;;;;5037722;28;20191;-75
2022/08/05 00:19:03;;;;;;;3.25;1.02;;;18.20;99.90;;;;;;5038417;28;20186;-75
2022/08/05 00:21:36;;;;;;;1.48;0.85;;;18.40;99.90;;;;;;5038379;28;20191;-75
2022/08/05 00:24:07;;;;;;;3.60;1.05;;;18.60;99.90;;;;;;5038695;28;20225;-75
2022/08/05 00:26:38;;;;;;;2.47;1.02;;;18.70;99.90;;;;;;5038448;28;20198;-76
2022/08/05 00:29:08;;;;;;;3.03;1.02;;;18.70;99.90;;;;;;5038218;28;20237;-74
2022/08/05 00:31:39;;;;;;;2.92;1.00;;;18.80;99.90;;;;;;5037550;28;20190;-75
2022/08/05 00:34:10;;;;;;;0.85;0.75;;;18.80;99.90;;;;;;5038350;28;20197;-74
2022/08/05 00:36:42;;;;;;;2.70;1.38;;;18.80;99.90;;;;;;5038494;28;20201;-76
2022/08/05 00:39:13;;;;;;;1.73;0.98;;;18.80;99.90;;;;;;5038220;28;20221;-75
2022/08/05 00:41:48;;;;;;;4.53;1.08;;;18.80;99.90;;;;;;5038559;28;20202;-75
2022/08/05 00:44:19;;;;;;;2.33;1.00;;;18.80;99.90;;;;;;5038555;28;20221;-75
2022/08/05 00:46:50;;;;;;;5.50;0.80;;;18.80;99.90;;;;;;5018846;28;20191;-76
2022/08/05 00:49:21;;;;;;;1.95;1.20;;;18.80;99.90;;;;;;5018859;28;20187;-75
2022/08/05 00:51:53;;;;;;;1.27;0.77;;;18.80;99.90;;;;;;5037636;28;20555;-75
2022/08/05 00:54:24;;;;;;;1.95;0.95;;;18.90;99.90;;;;;;5038434;28;20195;-75
2022/08/05 00:56:55;;;;;;;2.70;1.00;;;18.90;99.90;;;;;;5035865;28;20194;-74
2022/08/05 00:59:25;;;;;;;1.42;1.00;;;19.00;99.90;;;;;;5035486;28;20201;-75
2022/08/05 01:01:56;;;;;;;1.23;0.90;;;19.00;99.90;;;;;;5035279;28;20190;-75
2022/08/05 01:04:26;;;;;;;2.60;1.30;;;19.00;99.90;;;;;;5035294;28;20222;-75
2022/08/05 01:06:59;;;;;;;3.28;0.90;;;19.00;99.90;;;;;;5035320;28;20543;-76
2022/08/05 01:09:30;;;;;;;3.22;1.10;;;19.00;99.90;;;;;;5035231;28;20198;-75
2022/08/05 01:12:04;;;;;;;2.92;1.00;;;19.10;99.90;;;;;;5035041;28;20199;-76
2022/08/05 01:14:42;;;;;;;1.65;1.05;;;19.10;99.90;;;;;;5034647;28;20182;-74
2022/08/05 01:17:19;;;;;;;3.33;1.02;;;19.00;99.90;;;;;;5034892;28;20193;-75
2022/08/05 01:19:54;;;;;;;3.60;1.15;;;19.10;99.90;;;;;;5034919;28;20194;-75
2022/08/05 01:22:39;;;;;;;1.90;1.08;;;19.10;99.90;;;;;;5034993;28;20194;-75
2022/08/05 01:25:31;;;;;;;1.50;1.00;;;19.30;99.90;;;;;;5034863;28;20316;-75
2022/08/05 01:28:24;;;;;;;2.80;1.42;;;19.40;99.90;;;;;;5030021;28;20669;-75
2022/08/05 01:30:58;;;;;;;3.20;0.93;;;19.50;99.90;;;;;;5031040;28;20214;-74
2022/08/05 01:33:36;;;;;;;1.70;0.90;;;19.60;99.90;;;;;;5032434;28;20222;-75
2022/08/05 01:36:14;;;;;;;2.55;0.90;;;19.70;99.90;;;;;;5030168;28;20220;-76
2022/08/05 01:38:47;;;;;;;2.97;1.08;;;19.90;99.90;;;;;;5031890;28;20689;-74
2022/08/05 01:41:21;;;;;;;4.25;0.80;;;19.90;99.90;;;;;;5031788;28;20289;-74
2022/08/05 01:43:55;;;;;;;0.77;0.63;;;20.10;99.90;;;;;;5030636;28;20218;-76
2022/08/05 01:46:26;;;;;;;2.03;1.10;;;20.30;99.90;;;;;;5034364;28;20206;-74
2022/08/05 01:48:58;;;;;;;4.38;0.90;;;20.50;99.90;;;;;;5032488;28;20206;-75
2022/08/05 01:51:32;;;;;;;2.00;0.80;;;20.60;99.90;;;;;;5032875;28;20198;-76
2022/08/05 01:54:04;;;;;;;3.25;0.90;;;20.60;99.90;;;;;;5033209;28;20232;-76
2022/08/05 01:56:39;;;;;;;2.72;0.80;;;20.60;99.90;;;;;;5034254;28;20194;-76
2022/08/05 01:59:14;;;;;;;2.08;0.70;;;20.80;99.90;;;;;;5037880;28;20605;-76
2022/08/05 02:01:47;;;;;;;1.38;0.80;;;20.90;99.90;;;;;;5034088;28;20545;-76
2022/08/05 02:04:21;;;;;;;2.30;0.90;;;21.00;99.90;;;;;;5033769;28;20210;-74
2022/08/05 02:06:52;;;;;;;1.95;0.63;;;21.20;99.90;;;;;;5033338;28;20672;-75
2022/08/05 02:09:23;;;;;;;1.23;0.80;;;21.30;99.90;;;;;;5039734;28;20209;-75
2022/08/05 02:12:02;;;;;;;4.80;0.90;;;21.40;99.90;;;;;;5035708;28;20198;-76
2022/08/05 02:14:39;;;;;;;2.72;0.70;;;21.30;99.90;;;;;;5025606;28;20209;-74
2022/08/05 02:17:14;;;;;;;3.10;0.60;;;21.30;99.90;;;;;;5027653;28;20664;-78
2022/08/05 02:19:49;;;;;;;1.17;0.82;;;21.40;99.90;;;;;;5029473;28;20300;-73
2022/08/05 02:22:24;;;;;;;1.10;0.60;;;21.50;99.90;;;;;;5030963;28;20193;-71
2022/08/05 02:25:00;;;;;;;3.80;1.17;;;21.60;99.90;;;;;;5033165;28;20228;-71
2022/08/05 02:27:33;;;;;;;1.45;0.70;;;21.60;99.90;;;;;;5041737;28;20193;-72
2022/08/05 02:30:07;;;;;;;2.40;0.70;;;21.80;99.90;;;;;;5033467;28;20214;-71
2022/08/05 02:32:40;;;;;;;2.35;0.70;;;21.80;99.90;;;;;;5032838;28;20237;-71
2022/08/05 02:35:15;;;;;;;1.33;0.70;;;21.90;99.90;;;;;;5028919;28;20203;-71
2022/08/05 02:37:47;;;;;;;2.00;0.60;;;22.00;99.90;;;;;;5030133;28;20202;-72
2022/08/05 02:40:20;;;;;;;2.42;1.45;;;22.00;99.90;;;;;;5025623;28;20195;-73
2022/08/05 02:42:51;;;;;;;2.08;0.60;;;21.90;99.90;;;;;;5029374;28;20198;-73
2022/08/05 02:45:25;;;;;;;1.83;0.60;;;22.00;99.90;;;;;;5033441;28;20589;-73
2022/08/05 02:47:57;;;;;;;2.03;0.60;;;22.00;99.90;;;;;;5025484;28;20966;-77
2022/08/05 02:50:29;;;;;;;1.90;0.60;;;22.00;99.90;;;;;;5028975;28;20214;-78
2022/08/05 02:53:00;;;;;;;1.33;0.52;;;22.10;99.90;;;;;;5033145;28;20237;-77
2022/08/05 02:55:33;;;;;;;1.75;0.60;;;22.20;99.90;;;;;;5028901;28;20289;-76
2022/08/05 02:58:05;;;;;;;1.20;0.88;;;22.10;99.90;;;;;;5032864;28;20186;-74
2022/08/05 03:00:40;;;;;;;2.17;0.73;;;22.10;99.90;;;;;;5029971;28;20202;-76
2022/08/05 03:03:16;;;;;;;2.42;0.70;;;22.20;99.90;;;;;;5027833;28;20243;-76
2022/08/05 03:05:48;;;;;;;1.00;0.60;;;22.30;99.90;;;;;;5043702;28;20216;-77
2022/08/05 03:08:20;;;;;;;1.15;0.50;;;22.20;99.90;;;;;;5032995;28;20209;-74
2022/08/05 03:10:51;;;;;;;1.25;0.60;;;22.20;99.90;;;;;;5029811;28;20569;-73
2022/08/05 03:13:22;;;;;;;2.63;0.75;;;22.20;99.90;;;;;;5032757;28;20192;-76
2022/08/05 03:15:54;;;;;;;1.50;0.70;;;22.20;99.90;;;;;;5028453;28;20202;-74
2022/08/05 03:18:25;;;;;;;0.60;0.52;;;22.30;99.90;;;;;;5030817;28;20205;-74
2022/08/05 03:20:55;;;;;;;3.72;1.70;;;22.20;99.90;;;;;;5021627;28;20599;-75
2022/08/05 03:23:26;;;;;;;1.42;0.40;;;22.30;99.90;;;;;;5027114;28;20586;-77
2022/08/05 03:25:57;;;;;;;1.40;0.60;;;22.50;99.90;;;;;;5021351;28;20269;-74
2022/08/05 03:28:29;;;;;;;2.40;0.60;;;22.50;99.90;;;;;;5027294;28;20283;-75
2022/08/05 03:31:03;;;;;;;0.93;0.50;;;22.50;99.90;;;;;;5030598;28;20205;-76
2022/08/05 03:33:34;;;;;;;3.40;0.80;;;22.50;99.90;;;;;;5030318;28;20193;-76
2022/08/05 03:36:06;;;;;;;1.75;0.77;;;22.60;99.90;;;;;;5029310;28;20198;-77
2022/08/05 03:38:41;;;;;;;4.00;0.50;;;22.60;99.90;;;;;;5026534;28;20238;-75
2022/08/05 03:41:12;;;;;;;2.63;0.50;;;22.50;99.90;;;;;;5018338;28;20331;-77
2022/08/05 03:43:43;;;;;;;1.20;0.50;;;22.50;99.90;;;;;;5020798;28;20202;-78
2022/08/05 03:46:16;;;;;;;1.85;0.50;;;22.40;99.90;;;;;;5028615;28;20593;-76
2022/08/05 03:48:46;;;;;;;0.68;0.47;;;22.40;99.90;;;;;;5026509;28;20198;-76
2022/08/05 03:51:22;;;;;;;1.98;0.50;;;22.30;99.90;;;;;;5032464;28;20281;-77
2022/08/05 03:53:58;;;;;;;1.60;0.63;;;22.30;99.90;;;;;;5027784;28;20657;-75
2022/08/05 03:56:34;;;;;;;0.93;0.40;;;22.30;99.90;;;;;;5030285;28;20206;-76
2022/08/05 03:59:09;;;;;;;1.08;0.80;;;22.30;99.90;;;;;;5027316;28;20209;-74
2022/08/05 04:01:46;;;;;;;0.35;0.30;;;22.30;99.90;;;;;;5032269;28;20194;-75
2022/08/05 04:04:18;;;;;;;1.38;0.50;;;22.30;99.90;;;;;;5024329;28;20246;-73
2022/08/05 04:06:49;;;;;;;1.77;0.40;;;22.40;99.90;;;;;;5021155;28;20209;-76
2022/08/05 04:09:20;;;;;;;0.45;0.32;;;22.50;99.90;;;;;;5019571;28;20205;-76
2022/08/05 04:11:51;;;;;;;1.27;0.40;;;22.40;99.90;;;;;;5030930;28;20209;-75
2022/08/05 04:14:22;;;;;;;1.30;0.40;;;22.40;99.90;;;;;;5029663;28;20277;-76
2022/08/05 04:16:55;;;;;;;0.85;0.55;;;22.50;99.90;;;;;;5032263;28;20195;-76
2022/08/05 04:19:26;;;;;;;1.60;0.40;;;22.60;99.90;;;;;;5028672;28;20298;-75
2022/08/05 04:21:57;;;;;;;4.15;0.40;;;22.50;99.90;;;;;;5029588;28;20202;-76
2022/08/05 04:24:27;;;;;;;2.20;0.55;;;22.60;99.90;;;;;;5029212;28;20231;-75
2022/08/05 04:26:58;;;;;;;0.28;0.28;;;22.70;99.90;;;;;;5027168;28;20646;-76
2022/08/05 04:29:29;;;;;;;2.28;0.50;;;22.80;99.90;;;;;;5026714;28;20355;-75
2022/08/05 04:32:01;;;;;;;2.33;0.47;;;22.80;99.90;;;;;;5029457;28;20218;-74
2022/08/05 04:34:32;;;;;;;1.92;0.40;;;22.70;99.90;;;;;;5031689;28;20198;-75
2022/08/05 04:37:03;;;;;;;2.15;0.30;;;22.60;99.90;;;;;;5032817;28;20203;-77
2022/08/05 04:39:34;;;;;;;0.85;0.30;;;22.60;99.90;;;;;;5033244;28;20226;-77
2022/08/05 04:42:05;;;;;;;4.15;0.90;;;22.60;99.90;;;;;;5021110;28;20202;-78
2022/08/05 04:44:35;;;;;;;1.88;0.60;;;22.70;99.90;;;;;;5034202;28;20206;-78
2022/08/05 04:47:08;;;;;;;2.60;0.70;;;22.60;99.90;;;;;;5031623;28;20190;-75
2022/08/05 04:49:40;;;;;;;3.28;1.05;;;22.70;99.90;;;;;;5033019;28;20194;-75
2022/08/05 04:52:10;;;;;;;1.40;0.50;;;22.70;99.90;;;;;;5027752;28;20229;-75
2022/08/05 04:54:41;;;;;;;1.27;0.45;;;22.70;99.90;;;;;;5034197;28;20205;-78
2022/08/05 04:57:12;;;;;;;0.82;0.40;;;22.60;99.90;;;;;;5026766;28;20202;-78
2022/08/05 04:59:42;;;;;;;1.05;0.40;;;22.60;99.90;;;;;;5029630;28;20226;-77
2022/08/05 05:02:15;;;;;;;0.68;0.30;;;22.50;99.90;;;;;;5023483;28;20206;-79
2022/08/05 05:04:45;;;;;;;2.53;0.30;;;22.60;99.90;;;;;;5025939;28;20688;-78
2022/08/05 05:07:16;;;;;;;1.65;0.50;;;22.50;99.90;;;;;;5024216;28;20641;-79
2022/08/05 05:09:47;;;;;;;2.22;0.40;;;22.40;99.90;;;;;;5017834;28;20549;-77
2022/08/05 05:12:18;;;;;;;2.17;0.70;;;22.50;99.90;;;;;;5024489;28;20198;-77
2022/08/05 05:14:48;;;;;;;1.90;0.40;;;22.40;99.90;;;;;;5035213;28;20190;-76
2022/08/05 05:17:21;;;;;;;3.25;0.50;;;22.40;99.90;;;;;;5031403;28;20284;-79
2022/08/05 05:19:54;;;;;;;1.25;0.60;;;22.40;99.90;;;;;;5034004;28;20208;-78
2022/08/05 05:22:24;;;;;;;4.10;0.60;;;22.50;99.90;;;;;;5029297;28;20202;-78
2022/08/05 05:24:55;;;;;;;0.80;0.40;;;22.40;99.90;;;;;;5034949;28;20681;-79
2022/08/05 05:27:26;;;;;;;1.75;0.50;;;22.50;99.90;;;;;;5037447;28;20198;-79
2022/08/05 05:29:56;;;;;;;0.52;0.30;;;22.40;99.90;;;;;;5030561;28;20194;-78
2022/08/05 05:32:29;;;;;;;2.05;0.22;;;22.50;99.90;;;;;;5032023;28;21889;-79
2022/08/05 05:35:00;;;;;;;1.40;0.30;;;22.50;99.90;;;;;;5030071;28;20292;-78
2022/08/05 05:37:31;;;;;;;0.28;0.28;;;22.50;99.90;;;;;;5027332;28;20206;-79
2022/08/05 05:40:02;;;;;;;0.52;0.30;;;22.50;99.90;;;;;;5028772;28;20198;-79
2022/08/05 05:42:32;;;;;;;2.17;0.40;;;22.50;99.90;;;;;;5023463;28;20209;-79
2022/08/05 05:45:03;;;;;;;0.82;0.40;;;22.50;99.90;;;;;;5028764;28;20677;-75
2022/08/05 05:47:37;;;;;;;2.30;0.60;;;22.50;99.90;;;;;;5032600;28;20684;-76
2022/08/05 05:50:09;;;;;;;2.30;0.43;;;22.40;99.90;;;;;;5027086;28;20204;-78
2022/08/05 05:52:40;;;;;;;1.55;0.43;;;22.40;99.90;;;;;;5033203;28;20209;-76
2022/08/05 05:55:12;;;;;;;1.10;0.35;;;22.40;99.90;;;;;;5023914;28;20217;-74
2022/08/05 05:57:43;;;;;;;2.20;0.63;;;22.40;99.90;;;;;;5031941;28;20676;-76
2022/08/05 06:00:18;;;;;;;1.85;0.30;;;22.30;99.90;;;;;;5032697;28;20534;-78
2022/08/05 06:02:51;;;;;;;1.35;0.40;;;22.20;99.90;;;;;;5031191;28;20205;-78
2022/08/05 06:05:22;;;;;;;0.90;0.30;;;22.20;99.90;;;;;;5019250;28;20210;-75
2022/08/05 06:07:52;;;;;;;0.65;0.30;;;22.10;99.90;;;;;;5033996;28;20230;-77
2022/08/05 06:10:23;;;;;;;2.97;0.40;;;22.10;99.90;;;;;;5032428;28;20199;-77
2022/08/05 06:12:53;;;;;;;0.98;0.30;;;22.00;99.90;;;;;;5033563;28;20634;-74
2022/08/05 06:15:24;;;;;;;2.22;0.30;;;22.00;99.90;;;;;;5033895;28;20209;-75
2022/08/05 06:17:57;;;;;;;1.15;0.40;;;21.90;99.90;;;;;;5033344;28;20198;-77
2022/08/05 06:20:27;;;;;;;1.23;0.30;;;21.90;99.90;;;;;;5033808;28;20202;-74
2022/08/05 06:23:00;;;;;;;2.53;0.30;;;21.80;99.90;;;;;;5030927;28;20576;-74
2022/08/05 06:25:30;;;;;;;0.50;0.22;;;21.80;99.90;;;;;;5024526;28;20211;-76
2022/08/05 06:28:01;;;;;;;0.70;0.28;;;21.80;99.90;;;;;;5026080;28;20202;-78
2022/08/05 06:30:32;;;;;;;0.55;0.30;;;21.70;99.90;;;;;;5032081;28;20205;-78
2022/08/05 06:33:04;;;;;;;3.83;0.40;;;21.60;99.90;;;;;;5033284;28;20222;-78
2022/08/05 06:35:35;;;;;;;2.10;0.47;;;21.50;99.90;;;;;;5032953;28;20217;-78
2022/08/05 06:38:06;;;;;;;1.27;0.43;;;21.50;99.90;;;;;;5032332;28;20237;-77
2022/08/05 06:40:36;;;;;;;1.77;0.40;;;21.40;99.90;;;;;;5036429;28;20214;-78
2022/08/05 06:43:07;;;;;;;1.33;0.40;;;21.40;99.90;;;;;;5033256;28;20560;-75
2022/08/05 06:45:38;;;;;;;1.95;0.52;;;21.30;99.90;;;;;;5028894;28;20221;-78
2022/08/05 06:48:11;;;;;;;0.70;0.40;;;21.30;99.90;;;;;;5033115;28;20192;-77
2022/08/05 06:50:41;;;;;;;0.90;0.38;;;21.30;99.90;;;;;;5033288;28;20210;-76
2022/08/05 06:53:13;;;;;;;1.23;0.60;;;21.20;99.90;;;;;;5032908;28;20648;-76
2022/08/05 06:55:44;;;;;;;0.90;0.40;;;21.10;99.90;;;;;;5033242;28;20582;-75
2022/08/05 06:58:15;;;;;;;1.05;0.45;;;21.10;99.90;;;;;;5034254;28;20196;-78
2022/08/05 07:00:45;;;;;;;1.25;0.50;;;21.00;99.90;;;;;;5031067;28;20249;-77
2022/08/05 07:03:18;;;;;;;0.77;0.40;;;20.90;99.90;;;;;;5028542;28;20197;-77
2022/08/05 07:05:49;;;;;;;1.67;0.43;;;20.80;99.90;;;;;;5031889;28;20223;-77
2022/08/05 07:08:21;;;;;;;1.02;0.60;;;20.70;99.90;;;;;;5032754;28;20197;-79
2022/08/05 07:10:52;;;;;;;1.27;0.60;;;20.60;99.90;;;;;;5032367;28;20198;-77
2022/08/05 07:18:59;;;;;;;1.45;0.50;;;20.40;99.90;;;;;;5029326;28;20221;-77
2022/08/05 07:21:29;;;;;;;3.60;0.70;;;20.30;99.90;;;;;;5026748;28;20220;-77
2022/08/05 07:24:00;;;;;;;1.05;0.63;;;20.30;99.90;;;;;;5029304;28;20201;-78
2022/08/05 07:26:31;;;;;;;0.90;0.50;;;20.20;99.90;;;;;;5031412;28;20673;-77
2022/08/05 07:29:02;;;;;;;1.85;0.60;;;20.10;99.90;;;;;;5029600;28;20206;-76
2022/08/05 07:31:32;;;;;;;1.08;0.50;;;20.00;99.90;;;;;;5028805;28;20723;-77
2022/08/05 07:34:05;;;;;;;3.47;0.60;;;19.90;99.90;;;;;;5032163;28;20549;-77
2022/08/05 07:36:36;;;;;;;1.80;0.80;;;19.90;99.90;;;;;;5031457;28;20202;-77
2022/08/05 07:39:08;;;;;;;1.77;0.80;;;19.90;99.90;;;;;;5031393;28;20268;-78
2022/08/05 07:41:39;;;;;;;1.52;0.85;;;19.80;99.90;;;;;;5031669;28;20550;-77
2022/08/05 07:44:10;;;;;;;2.30;0.98;;;19.70;99.90;;;;;;5030343;28;20198;-77
2022/08/05 07:46:41;;;;;;;2.25;0.95;;;19.60;99.90;;;;;;5031387;28;20666;-77
2022/08/05 07:49:14;;;;;;;2.28;0.82;;;19.50;99.90;;;;;;5029288;28;20198;-77
2022/08/05 07:51:44;;;;;;;2.70;0.85;;;19.50;99.90;;;;;;5029279;28;20242;-78
2022/08/05 07:54:15;;;;;;;1.98;0.70;;;19.40;99.90;;;;;;5029295;28;20202;-77
2022/08/05 07:56:46;;;;;;;3.47;0.80;;;19.30;99.90;;;;;;5029116;28;20198;-78
2022/08/05 07:59:16;;;;;;;2.92;0.70;;;19.30;99.90;;;;;;5031461;28;20197;-77
2022/08/05 08:01:47;;;;;;;2.70;0.60;;;19.20;99.90;;;;;;5029107;28;20198;-77
2022/08/05 08:04:20;;;;;;;3.38;0.70;;;19.10;99.90;;;;;;5029158;28;20206;-78
2022/08/05 08:06:50;;;;;;;1.42;0.60;;;19.00;99.90;;;;;;5031154;28;20222;-77
2022/08/05 08:09:23;;;;;;;5.75;0.80;;;19.00;99.90;;;;;;5036288;28;20191;-77
2022/08/05 08:12:13;;;;;;;2.70;0.90;;;18.90;99.90;;;;;;5029710;28;20676;-76
2022/08/05 08:14:44;;;;;;;3.88;1.00;;;18.90;99.90;;;;;;5030979;28;20643;-76
2022/08/05 08:17:15;;;;;;;2.97;1.10;;;18.80;99.90;;;;;;5031534;28;20205;-78
2022/08/05 08:19:48;;;;;;;4.15;1.38;;;18.70;99.90;;;;;;5033189;28;20194;-77
2022/08/05 08:22:19;;;;;;;3.83;0.98;;;18.70;99.90;;;;;;5026143;28;20537;-77
2022/08/05 08:24:50;;;;;;;3.42;1.10;;;18.60;99.90;;;;;;5032865;28;20202;-77
2022/08/05 08:27:21;;;;;;;4.25;1.20;;;18.50;99.90;;;;;;5034499;28;20226;-76
2022/08/05 08:29:51;;;;;;;5.00;1.30;;;18.50;99.90;;;;;;5032084;28;20213;-77
2022/08/05 08:32:22;;;;;;;2.50;1.10;;;18.40;99.90;;;;;;5035013;28;20218;-77
2022/08/05 08:34:55;;;;;;;5.88;1.52;;;18.40;99.90;;;;;;5034091;28;20195;-76
2022/08/05 08:37:26;;;;;;;2.78;1.42;;;18.40;99.90;;;;;;5033466;28;20202;-75
2022/08/05 08:39:56;;;;;;;4.78;2.00;;;18.30;99.90;;;;;;5031543;28;20591;-75
2022/08/05 08:42:28;;;;;;;5.60;1.60;;;18.30;99.90;;;;;;5031111;28;20199;-76
2022/08/05 08:45:00;;;;;;;3.22;1.25;;;18.30;99.90;;;;;;5033065;28;20255;-75
2022/08/05 08:47:31;;;;;;;2.05;1.10;;;18.30;99.90;;;;;;5034544;28;20218;-76
2022/08/05 08:50:06;;;;;;;6.63;1.30;;;18.40;99.90;;;;;;5029433;28;20198;-74
2022/08/05 08:52:38;;;;;;;5.28;1.20;;;18.40;99.90;;;;;;5035171;28;20198;-74
2022/08/05 08:55:11;;;;;;;2.40;1.10;;;18.40;99.90;;;;;;5034000;28;20229;-75
2022/08/05 08:57:41;;;;;;;2.10;1.23;;;18.30;99.90;;;;;;5034328;28;20221;-74
2022/08/05 09:00:13;;;;;;;4.13;1.35;;;18.30;99.90;;;;;;5031087;28;20210;-73
2022/08/05 09:02:45;;;;;;;3.22;1.20;;;18.30;99.90;;;;;;5033035;28;20572;-74
2022/08/05 09:05:18;;;;;;;2.83;1.10;;;18.20;99.90;;;;;;5034150;28;20197;-75
2022/08/05 09:07:49;;;;;;;2.35;1.00;;;18.20;99.90;;;;;;5031655;28;20221;-74
2022/08/05 09:10:20;;;;;;;1.85;1.10;;;18.20;99.90;;;;;;5031625;28;20201;-74
2022/08/05 09:12:51;;;;;;;4.03;1.02;;;18.20;99.90;;;;;;5034837;28;20194;-75
2022/08/05 09:15:22;;;;;;;2.15;1.00;;;18.30;99.90;;;;;;5031883;28;20221;-74
2022/08/05 09:17:53;;;;;;;1.33;0.80;;;18.40;99.90;;;;;;5027741;28;20241;-73
2022/08/05 09:20:26;;;;;;;1.75;0.77;;;18.40;99.90;;;;;;5031091;28;20214;-73
2022/08/05 09:23:16;;;;;;;1.25;0.60;;;18.40;99.90;;;;;;5028251;28;20666;-73
2022/08/05 09:25:48;;;;;;;0.77;0.60;;;18.50;99.90;;;;;;5029037;28;20699;-74
2022/08/05 09:28:23;;;;;;;2.13;0.70;;;18.30;99.90;;;;;;5030288;28;20216;-74
2022/08/05 09:30:59;;;;;;;0.95;0.50;;;18.30;99.90;;;;;;5021888;28;20634;-74
2022/08/05 09:33:47;;;;;;;4.18;0.70;;;18.30;99.90;;;;;;5030012;28;20194;-75
2022/08/05 09:36:28;;;;;;;2.58;0.73;;;18.20;99.90;;;;;;5024799;28;20562;-73
2022/08/05 09:39:06;;;;;;;2.97;0.60;;;18.20;99.90;;;;;;5027257;28;20237;-75
2022/08/05 09:41:58;;;;;;;1.30;0.40;;;18.20;99.90;;;;;;5033334;28;20197;-74
2022/08/05 09:44:40;;;;;;;2.50;0.60;;;18.30;99.90;;;;;;5033035;28;20213;-75
2022/08/05 09:47:13;;;;;;;2.78;0.60;;;18.20;99.90;;;;;;5027531;28;20305;-75
2022/08/05 09:50:00;;;;;;;1.27;0.60;;;18.30;99.90;;;;;;5033129;28;20285;-76
2022/08/05 09:52:50;;;;;;;2.30;0.60;;;18.30;99.90;;;;;;5012624;28;20209;-74
2022/08/05 09:55:27;;;;;;;1.35;0.60;;;18.30;99.90;;;;;;5030747;28;20187;-76
2022/08/05 09:57:58;;;;;;;0.68;0.57;;;18.30;99.90;;;;;;5030841;28;20194;-75
2022/08/05 10:00:34;;;;;;;0.75;0.50;;;18.20;99.90;;;;;;5019500;28;20195;-76
2022/08/05 10:03:12;;;;;;;3.08;0.77;;;18.20;99.90;;;;;;5028166;28;20654;-73
2022/08/05 10:05:42;;;;;;;1.35;0.75;;;18.10;99.90;;;;;;5028615;28;20585;-74
2022/08/05 10:08:16;;;;;;;1.63;0.70;;;18.10;99.90;;;;;;5029333;28;20238;-73
2022/08/05 10:10:51;;;;;;;2.28;0.50;;;18.00;99.90;;;;;;5033171;28;20202;-74
2022/08/05 10:13:34;;;;;;;0.80;0.57;;;18.10;99.90;;;;;;5032444;28;20286;-74
2022/08/05 10:16:10;;;;;;;1.55;0.50;;;18.00;99.90;;;;;;5032068;28;20240;-75
2022/08/05 10:18:41;;;;;;;1.13;0.68;;;18.00;99.90;;;;;;5031783;28;20229;-75
2022/08/05 10:21:12;;;;;;;1.83;0.80;;;18.00;99.90;;;;;;5032499;28;20285;-74
2022/08/05 10:23:46;;;;;;;1.38;0.50;;;18.00;99.90;;;;;;5033106;28;20201;-75
2022/08/05 10:26:17;;;;;;;4.18;0.70;;;17.90;99.90;;;;;;5030871;28;20205;-74
2022/08/05 10:28:51;;;;;;;2.53;0.52;;;17.80;99.90;;;;;;5029650;28;20711;-73
2022/08/05 10:31:22;;;;;;;2.33;0.68;;;17.80;99.90;;;;;;5033142;28;20245;-74
2022/08/05 10:33:52;;;;;;;2.08;0.75;;;17.80;99.90;;;;;;5030975;28;20241;-74
2022/08/05 10:36:23;;;;;;;2.63;0.60;;;17.80;99.90;;;;;;5031914;28;20679;-74
2022/08/05 10:39:01;;;;;;;0.77;0.50;;;17.70;99.90;;;;;;5029357;28;20727;-74
2022/08/05 10:41:37;;;;;;;1.98;0.70;;;17.70;99.90;;;;;;5032631;28;20566;-73
2022/08/05 10:44:11;;;;;;;2.17;0.73;;;17.70;99.90;;;;;;5030875;28;20201;-73
2022/08/05 10:46:52;;;;;;;0.93;0.50;;;17.60;99.90;;;;;;5031639;28;20213;-74
2022/08/05 10:49:23;;;;;;;1.02;0.40;;;17.60;99.90;;;;;;5030329;28;20657;-73
2022/08/05 10:51:56;;;;;;;2.15;0.60;;;17.50;99.90;;;;;;5029672;28;20206;-74
2022/08/05 10:54:49;;;;;;;0.90;0.77;;;17.50;99.90;;;;;;5030938;28;20195;-75
2022/08/05 10:57:29;;;;;;;0.77;0.52;;;17.50;99.90;;;;;;5032704;28;20190;-74
2022/08/05 11:00:14;;;;;;;0.95;0.50;;;17.50;99.90;;;;;;5033059;28;20232;-74
2022/08/05 11:03:13;;;;;;;1.42;0.60;;;17.40;99.90;;;;;;5031930;28;20288;-73
2022/08/05 11:06:03;;;;;;;1.35;0.70;;;17.40;99.90;;;;;;5031161;28;20218;-75
2022/08/05 11:08:34;;;;;;;2.50;0.52;;;17.30;99.90;;;;;;5021304;28;20276;-76
2022/08/05 11:11:36;;;;;;;0.88;0.60;;;17.20;99.90;;;;;;5030072;28;20198;-74
2022/08/05 11:14:07;;;;;;;1.67;0.63;;;17.20;99.90;;;;;;5009544;28;20206;-74
2022/08/05 11:16:38;;;;;;;1.52;0.60;;;17.10;99.90;;;;;;5015330;28;20210;-74
2022/08/05 11:19:27;;;;;;;3.03;0.60;;;17.10;99.90;;;;;;5028161;28;20212;-75
2022/08/05 11:22:19;;;;;;;1.70;0.70;;;17.10;99.90;;;;;;5013127;28;20206;-76
2022/08/05 11:25:09;;;;;;;0.75;0.68;;;17.00;99.90;;;;;;5014219;28;20203;-74
2022/08/05 11:27:42;;;;;;;2.28;0.60;;;16.90;99.90;;;;;;5029302;28;20233;-73
2022/08/05 11:30:13;;;;;;;2.50;0.70;;;16.90;99.90;;;;;;5029728;28;20557;-73
2022/08/05 11:32:43;;;;;;;2.28;0.70;;;16.80;99.90;;;;;;5031045;28;20571;-73
2022/08/05 11:35:54;;;;;;;1.95;0.70;;;16.80;99.90;;;;;;5029408;28;20206;-73
2022/08/05 11:38:54;;;;;;;1.17;0.70;;;16.80;99.90;;;;;;5027984;28;20705;-74
2022/08/05 11:41:25;;;;;;;2.20;0.70;;;16.80;99.90;;;;;;5023579;28;20561;-74
2022/08/05 11:44:02;;;;;;;1.17;0.63;;;16.80;99.90;;;;;;5031137;28;20203;-74
2022/08/05 11:46:33;;;;;;;1.77;0.70;;;16.70;99.90;;;;;;5032615;28;20645;-74
2022/08/05 11:49:05;;;;;;;1.83;0.70;;;16.60;99.90;;;;;;5032213;28;20194;-73
2022/08/05 11:51:37;;;;;;;2.20;0.80;;;16.60;99.90;;;;;;5026537;28;20698;-75
2022/08/05 11:54:08;;;;;;;1.58;0.80;;;16.50;99.90;;;;;;5025887;28;20201;-74
2022/08/05 11:56:49;;;;;;;1.83;0.63;;;16.40;99.90;;;;;;5031963;28;20221;-74
2022/08/05 11:59:25;;;;;;;2.13;0.90;;;16.50;99.90;;;;;;5028285;28;20194;-74
2022/08/05 12:02:00;;;;;;;1.33;0.80;;;16.40;99.90;;;;;;5025741;28;20633;-75
2022/08/05 12:04:40;;;;;;;1.10;0.60;;;16.50;99.90;;;;;;5024458;28;20193;-74
2022/08/05 12:07:12;;;;;;;1.77;0.50;;;16.50;99.90;;;;;;5022840;28;20206;-74
2022/08/05 12:09:45;;;;;;;0.70;0.60;;;16.40;99.90;;;;;;5027586;28;20233;-74
2022/08/05 12:12:22;;;;;;;0.75;0.50;;;16.50;99.90;;;;;;5027098;28;20237;-74
2022/08/05 12:14:54;;;;;;;3.55;0.50;;;16.50;99.90;;;;;;5030550;28;20281;-74
2022/08/05 12:17:26;;;;;;;0.93;0.43;;;16.40;99.90;;;;;;5031133;28;20198;-74
2022/08/05 12:19:58;;;;;;;1.00;0.60;;;16.40;99.90;;;;;;5029786;28;20206;-73
2022/08/05 12:22:30;;;;;;;1.73;0.50;;;16.30;99.90;;;;;;5029528;28;20190;-74
2022/08/05 12:25:01;;;;;;;2.25;0.60;;;16.30;99.90;;;;;;5031720;28;20190;-74
2022/08/05 12:27:33;;;;;;;1.85;0.77;;;16.20;99.90;;;;;;5028147;28;20234;-74
2022/08/05 12:30:09;;;;;;;1.67;0.60;;;16.10;99.90;;;;;;5029459;28;20191;-73
2022/08/05 12:32:49;;;;;;;1.42;0.60;;;16.10;99.90;;;;;;5030575;28;20222;-74
2022/08/05 12:35:22;;;;;;;1.90;0.70;;;16.10;99.90;;;;;;5031046;28;20811;-74
2022/08/05 12:37:53;;;;;;;1.98;0.60;;;16.00;99.90;;;;;;5050717;28;20251;-76
2022/08/05 12:40:24;;;;;;;3.22;0.70;;;16.00;99.90;;;;;;5032817;28;20194;-77
2022/08/05 12:42:55;;;;;;;0.63;0.50;;;15.90;99.90;;;;;;5031506;28;20187;-76
2022/08/05 12:45:28;;;;;;;1.48;0.52;;;15.90;99.90;;;;;;5026092;28;20281;-77
2022/08/05 12:47:58;;;;;;;3.05;0.70;;;15.90;99.90;;;;;;5031593;28;20623;-76
2022/08/05 12:50:29;;;;;;;3.40;0.75;;;15.80;99.90;;;;;;5029084;28;20920;-76
2022/08/05 12:53:01;;;;;;;4.20;0.80;;;15.70;99.90;;;;;;5033405;28;20684;-76
2022/08/05 12:55:33;;;;;;;2.65;0.70;;;15.60;99.90;;;;;;5027629;28;20194;-75
2022/08/05 12:58:04;;;;;;;2.80;0.60;;;15.50;99.90;;;;;;5032152;28;20202;-76
2022/08/05 13:00:45;;;;;;;2.35;0.60;;;15.50;99.90;;;;;;5035018;28;20665;-76
2022/08/05 13:03:15;;;;;;;1.40;0.65;;;15.40;99.90;;;;;;5035143;28;20233;-75
2022/08/05 13:05:49;;;;;;;2.40;0.57;;;15.30;99.90;;;;;;5034968;28;20201;-76
2022/08/05 13:08:21;;;;;;;1.65;0.50;;;15.20;99.90;;;;;;5034780;28;20221;-76
2022/08/05 13:10:51;;;;;;;1.15;0.50;;;15.10;99.90;;;;;;5035398;28;20202;-75
2022/08/05 13:13:23;;;;;;;0.45;0.43;;;15.10;99.90;;;;;;5034182;28;20248;-76
2022/08/05 13:15:57;;;;;;;2.22;0.60;;;15.20;99.90;;;;;;5032091;28;20198;-75
2022/08/05 13:18:39;;;;;;;1.88;0.60;;;15.10;99.90;;;;;;5028992;28;20543;-76
2022/08/05 13:21:11;;;;;;;0.93;0.70;;;15.10;99.90;;;;;;5031410;28;20202;-76
2022/08/05 13:23:42;;;;;;;0.50;0.40;;;15.10;99.90;;;;;;5033157;28;20202;-76
2022/08/05 13:26:13;;;;;;;1.08;0.60;;;15.10;99.90;;;;;;5033009;28;20572;-75